createdAt,value
2022-09-01T00:00:49.290Z,65.86
2022-09-01T00:03:53.786Z,67.14
2022-09-01T00:07:00.019Z,65.52
2022-09-01T00:10:07.025Z,65.21
2022-09-01T00:13:10.528Z,65.63
2022-09-01T00:16:15.654Z,66.88
2022-09-01T00:19:19.676Z,65.87
2022-09-01T00:22:24.405Z,64.61
2022-09-01T00:25:28.120Z,64.38
2022-09-01T00:28:33.836Z,64.68
2022-09-01T00:31:37.744Z,65.71
2022-09-01T00:34:41.733Z,64.87
2022-09-01T00:37:46.753Z,64.32
2022-09-01T00:40:50.175Z,64.28
2022-09-01T00:43:56.923Z,66.37
2022-09-01T00:47:01.055Z,66.18
2022-09-01T00:50:07.475Z,67.77
2022-09-01T00:53:12.296Z,67.38
2022-09-01T00:56:16.069Z,67.00
2022-09-01T00:59:22.265Z,67.67
2022-09-01T01:02:26.800Z,68.87
2022-09-01T01:05:35.328Z,69.98
2022-09-01T01:08:43.409Z,70.59
2022-09-01T01:11:47.667Z,70.27
2022-09-01T01:14:52.128Z,71.80
2022-09-01T01:17:56.056Z,72.53
2022-09-01T01:21:23.167Z,75.64
2022-09-01T01:24:29.646Z,75.97
2022-09-01T01:27:38.070Z,76.25
2022-09-01T01:30:52.438Z,74.49
2022-09-01T01:33:58.716Z,75.74
2022-09-01T01:37:02.140Z,72.12
2022-09-01T01:40:15.792Z,71.51
2022-09-01T01:43:21.916Z,72.07
2022-09-01T01:46:26.838Z,72.15
2022-09-01T01:49:31.261Z,71.15
2022-09-01T01:52:34.896Z,71.42
2022-09-01T01:55:43.868Z,75.08
2022-09-01T01:58:47.555Z,73.70
2022-09-01T02:01:52.873Z,71.45
2022-09-01T02:04:56.307Z,71.41
2022-09-01T02:08:04.467Z,71.94
2022-09-01T02:11:11.114Z,71.95
2022-09-01T02:14:21.628Z,72.12
2022-09-01T02:17:27.237Z,72.39
2022-09-01T02:20:32.972Z,73.35
2022-09-01T02:23:36.757Z,73.29
2022-09-01T02:26:45.995Z,71.42
2022-09-01T02:29:55.476Z,70.94
2022-09-01T02:32:59.691Z,70.40
2022-09-01T02:36:05.935Z,70.83
2022-09-01T02:39:11.153Z,70.88
2022-09-01T02:42:17.212Z,70.98
2022-09-01T02:45:20.744Z,71.05
2022-09-01T02:48:30.245Z,71.30
2022-09-01T02:51:34.625Z,70.65
2022-09-01T02:54:37.933Z,70.32
2022-09-01T02:57:42.649Z,71.50
2022-09-01T03:00:47.039Z,74.23
2022-09-01T03:03:50.924Z,74.75
2022-09-01T03:06:55.240Z,73.34
2022-09-01T03:09:58.907Z,73.87
2022-09-01T03:13:06.723Z,73.37
2022-09-01T03:16:10.980Z,72.82
2022-09-01T03:19:15.223Z,73.98
2022-09-01T03:22:19.282Z,73.80
2022-09-01T03:25:25.216Z,75.98
2022-09-01T03:28:31.079Z,75.63
2022-09-01T03:31:34.839Z,77.44
2022-09-01T03:34:38.804Z,77.77
2022-09-01T03:37:44.403Z,78.22
2022-09-01T03:40:48.468Z,78.71
2022-09-01T03:43:55.169Z,77.27
2022-09-01T03:46:58.595Z,75.63
2022-09-01T03:50:02.172Z,74.19
2022-09-01T03:53:07.055Z,75.10
2022-09-01T03:56:11.541Z,73.86
2022-09-01T03:59:17.892Z,76.25
2022-09-01T04:02:23.783Z,80.33
2022-09-01T04:05:30.100Z,79.29
2022-09-01T04:08:35.148Z,76.04
2022-09-01T04:11:45.602Z,75.41
2022-09-01T04:14:52.330Z,77.08
2022-09-01T04:18:20.280Z,77.69
2022-09-01T04:21:25.278Z,76.67
2022-09-01T04:24:31.955Z,76.34
2022-09-01T04:27:36.311Z,76.48
2022-09-01T04:30:42.476Z,76.21
2022-09-01T04:33:53.962Z,76.27
2022-09-01T04:36:58.987Z,74.94
2022-09-01T04:40:02.451Z,73.28
2022-09-01T04:43:07.854Z,71.18
2022-09-01T04:46:13.289Z,72.86
2022-09-01T04:49:20.771Z,71.68
2022-09-01T04:52:24.061Z,70.50
2022-09-01T04:55:29.710Z,70.12
2022-09-01T04:58:34.217Z,70.19
2022-09-01T05:01:45.334Z,69.25
2022-09-01T05:04:55.242Z,67.90
2022-09-01T05:07:58.898Z,67.08
2022-09-01T05:11:08.016Z,65.60
2022-09-01T05:14:22.543Z,66.09
2022-09-01T05:17:29.355Z,64.11
2022-09-01T05:20:33.641Z,63.55
2022-09-01T05:23:37.680Z,62.01
2022-09-01T05:26:43.735Z,63.15
2022-09-01T05:29:49.813Z,61.52
2022-09-01T05:32:55.158Z,60.96
2022-09-01T05:36:01.344Z,60.01
2022-09-01T05:39:07.052Z,60.89
2022-09-01T05:42:10.496Z,60.14
2022-09-01T05:45:18.283Z,59.84
2022-09-01T05:48:23.923Z,58.18
2022-09-01T05:51:44.432Z,57.48
2022-09-01T05:54:50.045Z,57.81
2022-09-01T05:57:55.366Z,57.62
2022-09-01T06:00:59.386Z,59.27
2022-09-01T06:04:06.527Z,58.02
2022-09-01T06:07:16.329Z,57.43
2022-09-01T06:10:30.675Z,56.67
2022-09-01T06:13:34.022Z,55.30
2022-09-01T06:16:38.403Z,54.83
2022-09-01T06:19:43.663Z,54.68
2022-09-01T06:22:47.840Z,55.42
2022-09-01T06:25:52.603Z,55.53
2022-09-01T06:29:00.023Z,54.06
2022-09-01T06:32:08.490Z,52.35
2022-09-01T06:35:13.789Z,51.53
2022-09-01T06:38:17.695Z,51.06
2022-09-01T06:41:24.579Z,49.93
2022-09-01T06:44:28.315Z,51.42
2022-09-01T06:47:37.589Z,50.14
2022-09-01T06:54:11.318Z,49.31
2022-09-01T07:00:42.340Z,48.98
2022-09-01T07:03:50.787Z,48.34
2022-09-01T07:07:54.444Z,48.26
2022-09-01T07:14:15.496Z,47.11
2022-09-01T07:17:22.920Z,46.63
2022-09-01T07:20:29.335Z,48.18
2022-09-01T07:24:10.604Z,47.89
2022-09-01T07:27:07.699Z,47.60
2022-09-01T07:30:12.677Z,47.03
2022-09-01T07:44:15.073Z,46.75
2022-09-01T07:47:54.950Z,47.02
2022-09-01T07:54:24.113Z,45.00
2022-09-01T07:57:29.603Z,43.69
2022-09-01T08:00:34.442Z,42.10
2022-09-01T08:03:42.971Z,42.50
2022-09-01T08:06:47.928Z,41.39
2022-09-01T08:09:56.036Z,41.46
2022-09-01T08:13:07.399Z,39.68
2022-09-01T08:16:19.582Z,41.85
2022-09-01T08:19:24.954Z,41.00
2022-09-01T08:22:41.049Z,39.35
2022-09-01T08:25:54.575Z,39.43
2022-09-01T08:28:59.544Z,40.07
2022-09-01T08:32:12.073Z,40.53
2022-09-01T08:35:16.420Z,40.99
2022-09-01T08:38:21.051Z,40.04
2022-09-01T08:41:40.598Z,39.76
2022-09-01T08:45:02.927Z,40.55
2022-09-01T08:48:57.285Z,41.02
2022-09-01T08:51:44.640Z,39.86
2022-09-01T08:54:51.632Z,38.79
2022-09-01T08:57:59.777Z,38.79
2022-09-01T09:01:14.624Z,39.62
2022-09-01T09:04:32.892Z,38.91
2022-09-01T09:08:07.389Z,38.53
2022-09-01T09:11:24.570Z,38.76
2022-09-01T09:14:38.694Z,38.04
2022-09-01T09:17:56.039Z,37.79
2022-09-01T09:21:10.029Z,38.33
2022-09-01T09:24:22.831Z,37.85
2022-09-01T09:27:28.767Z,38.00
2022-09-01T09:30:33.204Z,37.52
2022-09-01T09:33:51.674Z,37.70
2022-09-01T09:37:02.186Z,37.56
2022-09-01T09:40:12.593Z,37.73
2022-09-01T09:43:18.706Z,37.80
2022-09-01T09:46:26.654Z,37.25
2022-09-01T09:49:35.189Z,36.23
2022-09-01T09:52:40.943Z,35.76
2022-09-01T09:56:01.205Z,35.43
2022-09-01T09:59:29.391Z,35.46
2022-09-01T10:02:45.319Z,37.19
2022-09-01T10:05:52.362Z,37.45
2022-09-01T10:08:56.112Z,37.14
2022-09-01T10:12:00.957Z,36.88
2022-09-01T10:15:12.577Z,37.50
2022-09-01T10:18:21.929Z,37.42
2022-09-01T10:21:38.282Z,37.45
2022-09-01T10:24:44.684Z,37.56
2022-09-01T10:27:54.854Z,36.61
2022-09-01T10:30:59.873Z,36.78
2022-09-01T10:34:05.635Z,36.27
2022-09-01T10:37:16.015Z,36.43
2022-09-01T10:40:36.181Z,37.06
2022-09-01T10:43:49.159Z,36.77
2022-09-01T10:46:59.951Z,36.68
2022-09-01T10:50:24.128Z,36.30
2022-09-01T10:53:41.320Z,37.25
2022-09-01T10:56:51.369Z,37.25
2022-09-01T10:59:58.159Z,37.53
2022-09-01T11:03:31.962Z,36.79
2022-09-01T11:07:26.885Z,36.59
2022-09-01T11:10:38.195Z,36.93
2022-09-01T11:13:50.089Z,36.45
2022-09-01T11:17:15.828Z,35.41
2022-09-01T11:20:26.236Z,36.26
2022-09-01T11:23:31.489Z,35.62
2022-09-01T11:26:51.213Z,36.34
2022-09-01T11:29:57.656Z,36.05
2022-09-01T11:33:11.048Z,35.79
2022-09-01T11:36:23.622Z,35.26
2022-09-01T11:39:37.193Z,35.28
2022-09-01T11:42:46.740Z,35.37
2022-09-01T11:46:00.691Z,34.80
2022-09-01T11:49:08.783Z,34.78
2022-09-01T11:52:17.494Z,34.33
2022-09-01T11:55:30.635Z,33.51
2022-09-01T11:58:39.427Z,33.91
2022-09-01T12:01:43.357Z,34.19
2022-09-01T12:04:46.756Z,33.18
2022-09-01T12:07:50.081Z,33.70
2022-09-01T12:11:05.323Z,32.78
2022-09-01T12:14:13.286Z,33.42
2022-09-01T12:17:22.034Z,33.60
2022-09-01T12:20:31.164Z,33.11
2022-09-01T12:23:36.788Z,32.96
2022-09-01T12:26:40.875Z,32.34
2022-09-01T12:29:45.985Z,32.04
2022-09-01T12:32:49.970Z,32.59
2022-09-01T12:35:58.846Z,33.02
2022-09-01T12:39:21.397Z,33.61
2022-09-01T12:42:28.566Z,33.00
2022-09-01T12:45:43.953Z,32.37
2022-09-01T12:48:49.533Z,32.17
2022-09-01T12:52:07.842Z,32.23
2022-09-01T12:58:41.684Z,32.57
2022-09-01T13:01:46.580Z,32.54
2022-09-01T13:04:49.994Z,33.40
2022-09-01T13:07:55.547Z,33.06
2022-09-01T13:11:03.015Z,32.74
2022-09-01T13:14:06.409Z,32.07
2022-09-01T13:17:14.277Z,32.18
2022-09-01T13:20:18.346Z,32.35
2022-09-01T13:23:22.452Z,32.16
2022-09-01T13:26:26.470Z,32.77
2022-09-01T13:29:29.804Z,33.60
2022-09-01T13:32:34.735Z,33.99
2022-09-01T13:35:38.363Z,33.58
2022-09-01T13:38:42.342Z,34.35
2022-09-01T13:41:47.280Z,34.52
2022-09-01T13:44:54.048Z,34.87
2022-09-01T13:48:16.668Z,34.82
2022-09-01T13:51:26.886Z,34.85
2022-09-01T13:54:30.204Z,34.99
2022-09-01T13:57:35.868Z,35.22
2022-09-01T14:00:42.379Z,35.30
2022-09-01T14:03:51.865Z,35.56
2022-09-01T14:06:55.508Z,35.31
2022-09-01T14:09:58.773Z,35.82
2022-09-01T14:13:02.215Z,35.59
2022-09-01T14:16:12.334Z,35.21
2022-09-01T14:19:17.268Z,35.25
2022-09-01T14:22:21.235Z,35.48
2022-09-01T14:25:26.071Z,35.29
2022-09-01T14:28:29.458Z,35.31
2022-09-01T14:31:32.743Z,35.88
2022-09-01T14:34:37.590Z,35.34
2022-09-01T14:37:41.879Z,35.97
2022-09-01T14:40:45.325Z,35.61
2022-09-01T14:43:50.051Z,35.67
2022-09-01T14:46:53.814Z,35.22
2022-09-01T14:49:58.727Z,35.54
2022-09-01T14:53:03.964Z,35.78
2022-09-01T14:56:07.671Z,35.51
2022-09-01T14:59:11.037Z,35.74
2022-09-01T15:02:14.430Z,35.97
2022-09-01T15:05:19.811Z,36.06
2022-09-01T15:08:24.062Z,36.32
2022-09-01T15:11:28.615Z,35.80
2022-09-01T15:14:33.560Z,35.69
2022-09-01T15:17:37.354Z,35.90
2022-09-01T15:20:46.350Z,36.18
2022-09-01T15:23:54.118Z,36.39
2022-09-01T15:26:57.456Z,35.94
2022-09-01T15:30:00.821Z,37.55
2022-09-01T15:33:05.308Z,38.08
2022-09-01T15:36:18.657Z,39.42
2022-09-01T15:39:21.985Z,39.75
2022-09-01T15:42:25.302Z,40.22
2022-09-01T15:45:30.249Z,40.20
2022-09-01T15:48:33.571Z,40.81
2022-09-01T15:51:41.367Z,41.14
2022-09-01T15:54:46.242Z,40.94
2022-09-01T15:57:51.031Z,40.31
2022-09-01T16:00:57.144Z,39.89
2022-09-01T16:04:01.338Z,40.52
2022-09-01T16:07:06.206Z,40.48
2022-09-01T16:10:12.232Z,40.73
2022-09-01T16:13:15.570Z,40.83
2022-09-01T16:16:35.263Z,40.62
2022-09-01T16:19:51.009Z,41.46
2022-09-01T16:23:00.017Z,40.98
2022-09-01T16:26:03.368Z,41.86
2022-09-01T16:29:13.868Z,41.91
2022-09-01T16:32:20.030Z,42.04
2022-09-01T16:35:28.510Z,41.98
2022-09-01T16:38:42.441Z,42.44
2022-09-01T16:41:56.323Z,44.04
2022-09-01T16:45:09.269Z,46.40
2022-09-01T16:48:20.613Z,47.74
2022-09-01T16:51:32.840Z,47.28
2022-09-01T16:54:49.486Z,47.46
2022-09-01T16:58:01.683Z,46.68
2022-09-01T17:01:18.039Z,47.05
2022-09-01T17:04:33.705Z,47.41
2022-09-01T17:07:45.607Z,46.70
2022-09-01T17:10:56.414Z,46.60
2022-09-01T17:14:02.892Z,45.91
2022-09-01T17:17:10.971Z,46.09
2022-09-01T17:20:14.977Z,46.07
2022-09-01T17:23:28.281Z,45.86
2022-09-01T17:26:36.227Z,46.36
2022-09-01T17:29:44.866Z,45.71
2022-09-01T17:33:15.299Z,46.08
2022-09-01T17:36:32.220Z,46.20
2022-09-01T17:39:49.440Z,46.38
2022-09-01T17:43:02.754Z,46.42
2022-09-01T17:46:14.319Z,46.11
2022-09-01T17:49:25.415Z,45.91
2022-09-01T17:52:43.535Z,45.76
2022-09-01T17:56:00.744Z,45.24
2022-09-01T17:59:15.792Z,45.78
2022-09-01T18:02:40.491Z,45.83
2022-09-01T18:05:46.123Z,44.90
2022-09-01T18:08:55.132Z,45.23
2022-09-01T18:12:03.327Z,45.13
2022-09-01T18:15:12.244Z,45.38
2022-09-01T18:18:28.800Z,45.40
2022-09-01T18:21:37.435Z,45.35
2022-09-01T18:24:51.348Z,45.90
2022-09-01T18:27:54.738Z,45.77
2022-09-01T18:31:08.003Z,46.69
2022-09-01T18:34:21.752Z,47.42
2022-09-01T18:37:33.707Z,48.45
2022-09-01T18:40:45.936Z,48.99
2022-09-01T18:43:57.664Z,50.45
2022-09-01T18:47:07.787Z,50.39
2022-09-01T18:50:19.759Z,50.35
2022-09-01T18:53:36.376Z,50.37
2022-09-01T18:56:46.254Z,50.67
2022-09-01T19:00:17.041Z,51.05
2022-09-01T19:03:28.842Z,51.45
2022-09-01T19:06:40.757Z,51.21
2022-09-01T19:09:52.511Z,51.46
2022-09-01T19:13:03.702Z,52.44
2022-09-01T19:16:15.174Z,51.59
2022-09-01T19:19:31.203Z,51.36
2022-09-01T19:22:42.271Z,51.58
2022-09-01T19:25:46.055Z,52.54
2022-09-01T19:28:52.746Z,53.01
2022-09-01T19:32:02.019Z,53.19
2022-09-01T19:35:11.979Z,53.68
2022-09-01T19:38:20.665Z,54.53
2022-09-01T19:41:29.886Z,54.51
2022-09-01T19:44:44.563Z,54.46
2022-09-01T19:47:52.596Z,54.70
2022-09-01T19:51:04.561Z,54.59
2022-09-01T19:54:16.193Z,55.18
2022-09-01T19:57:27.220Z,55.72
2022-09-01T20:00:44.248Z,55.86
2022-09-01T20:03:54.050Z,56.10
2022-09-01T20:07:01.362Z,55.92
2022-09-01T20:10:23.344Z,56.31
2022-09-01T20:13:44.804Z,56.85
2022-09-01T20:16:52.022Z,56.03
2022-09-01T20:20:01.509Z,56.91
2022-09-01T20:23:20.888Z,58.18
2022-09-01T20:26:27.229Z,58.80
2022-09-01T20:29:38.945Z,58.59
2022-09-01T20:32:51.500Z,59.18
2022-09-01T20:35:59.706Z,59.14
2022-09-01T20:39:26.993Z,58.79
2022-09-01T20:42:40.467Z,59.02
2022-09-01T20:45:45.846Z,58.97
2022-09-01T20:48:49.792Z,59.23
2022-09-01T20:51:58.980Z,59.67
2022-09-01T20:55:13.700Z,59.88
2022-09-01T20:58:27.814Z,59.67
2022-09-01T21:01:38.508Z,60.25
2022-09-01T21:04:50.211Z,62.01
2022-09-01T21:08:08.563Z,61.50
2022-09-01T21:11:27.551Z,63.36
2022-09-01T21:14:52.338Z,62.28
2022-09-01T21:18:11.544Z,63.10
2022-09-01T21:21:24.596Z,63.77
2022-09-01T21:24:27.953Z,63.79
2022-09-01T21:27:38.273Z,64.78
2022-09-01T21:30:41.639Z,65.20
2022-09-01T21:33:44.945Z,66.51
2022-09-01T21:36:48.315Z,66.04
2022-09-01T21:39:53.151Z,68.88
2022-09-01T21:43:02.242Z,72.39
2022-09-01T21:46:08.209Z,75.08
2022-09-01T21:49:14.279Z,76.86
2022-09-01T21:52:17.758Z,76.42
2022-09-01T21:55:23.249Z,77.81
2022-09-01T21:58:28.083Z,79.17
2022-09-01T22:01:32.282Z,79.34
2022-09-01T22:04:37.620Z,78.73
2022-09-01T22:07:42.760Z,77.79
2022-09-01T22:10:49.229Z,78.91
2022-09-01T22:13:53.850Z,79.50
2022-09-01T22:17:01.064Z,78.45
2022-09-01T22:20:09.508Z,79.27
2022-09-01T22:23:13.958Z,79.04
2022-09-01T22:26:24.185Z,79.79
2022-09-01T22:29:28.977Z,79.13
2022-09-01T22:32:33.950Z,79.00
2022-09-01T22:35:41.864Z,80.40
2022-09-01T22:38:45.208Z,80.14
2022-09-01T22:41:48.600Z,78.92
2022-09-01T22:44:53.939Z,78.59
2022-09-01T22:47:57.310Z,78.48
2022-09-01T22:51:05.064Z,81.04
2022-09-01T22:54:11.450Z,81.63
2022-09-01T22:57:15.075Z,81.69
2022-09-01T23:00:19.903Z,79.26
2022-09-01T23:03:24.155Z,80.30
2022-09-01T23:06:28.933Z,80.85
2022-09-01T23:09:32.381Z,79.78
2022-09-01T23:12:35.625Z,80.24
2022-09-01T23:15:40.426Z,78.46
2022-09-01T23:18:45.914Z,78.87
2022-09-01T23:21:49.787Z,78.54
2022-09-01T23:24:53.124Z,78.45
2022-09-01T23:27:56.434Z,79.62
2022-09-01T23:31:01.485Z,80.03
2022-09-01T23:34:06.097Z,78.81
2022-09-01T23:37:09.434Z,80.20
2022-09-01T23:40:13.091Z,81.10
2022-09-01T23:43:17.657Z,81.27
2022-09-01T23:46:25.281Z,82.11
2022-09-01T23:49:28.595Z,83.32
2022-09-01T23:52:32.871Z,83.56
2022-09-01T23:55:36.328Z,81.65
2022-09-01T23:58:40.525Z,82.11
